Details From LPPT - Lisboa
To LPMR - Monte Real
Flight Number -
Tags Generated
Created
Modified
Stats Distance 63 nm / 117 km
Max Altitude 0 ft / 0 m
Waypoints 2
Social Downloads 1
Likes 0
Share VATSIM

Download

Looking for another format? Having issues loading an existing format? Contact us
Advertisement - Login to hide

Notes

Generated

Route

LPPT LPMR

ID Type Via Altitude Latitude Longitude Leg Dist Tot Dist Heading (true) Name
O LPPT APT - 0 ft / 0 m 38.78624˚ -9.13721˚ - 0 nm - -
O LPMR APT - 0 ft / 0 m 39.81777˚ -8.88779˚ 63 nm 63 nm 11° / 11° -

Altitude Profile

Advertisement - Login to hide

LPPT

Details ICAO LPPT (LIS)
Name Lisboa
Region Portugal
Timezone Europe/Lisbon (UTC+1.0)
Stats Elevation 374 ft / 114 m (AMSL)
Location 38.778559° -9.135146°
Runways 2
Magnetic Variation 2.309° W

METAR

LPPT 232130Z 33008KT 9999 FEW015 16/13 Q1015

Decode

TAF

TAF LPPT 231700Z 2318/2424 31010KT 9999 FEW025 BECMG 2400/2403 VRB03KT TEMPO 2403/2424 8000 SHRA BKN015 FEW030TCU TEMPO 2405/2410 04007KT PROB30 TEMPO 2410/2420 3000 TSRA SCT020CB BECMG 2413/2415 23010KT

Decode

Departure Runways

ID Width Length Bearing (true) Bearing (mag) Surface Threshold Offset Overrun Length
03 148 ft / 45 m 12,518 ft / 3,815 m 22.70° 25.01° Asphalt 296 ft / 90 m 0 ft / 0 m
17 148 ft / 45 m 7,922 ft / 2,415 m 168.38° 170.69° Asphalt 0 ft / 0 m 0 ft / 0 m
21 148 ft / 45 m 12,518 ft / 3,815 m 202.72° 205.03° Asphalt 1,969 ft / 600 m 0 ft / 0 m
35 148 ft / 45 m 7,922 ft / 2,415 m 348.38° 350.69° Asphalt 492 ft / 150 m 0 ft / 0 m

LPMR

Details ICAO LPMR
Name MONTE REAL
Region Portugal
Timezone Europe/Lisbon (UTC+1.0)
Stats Elevation 187 ft / 57 m (AMSL)
Location 39.831239° -8.887258°
Runways 1
Magnetic Variation 2.272° W

METAR

LPMR 232100Z 31003KT 270V340 8000 NSC 16/15 Q1015

Decode

TAF

TAF TAF AMD LPMR 231800Z 2318/2418 30008KT 9999 SCT015 PROB30 TEMPO 2318/2402 VRB02KT BKN009 PROB30 2402/2406 VRB02KT 0400 FG BKN004 BECMG 2404/2406 36008KT SCT030 TEMPO 2405/2418 5000 -SHRA BKN030 PROB40 TEMPO 2409/2412 3000 TSRA BKN020 SCT030CB PROB40 TEMPO 2412/2418 VRB15G25KT 1800 TSRAGS BKN014 SCT025CB

Decode

Destination Runways

ID Width Length Bearing (true) Bearing (mag) Surface Threshold Offset Overrun Length
01 148 ft / 45 m 9,833 ft / 2,997 m 1.73° 4.00° Concrete 886 ft / 270 m 0 ft / 0 m
19 148 ft / 45 m 9,833 ft / 2,997 m 181.73° 184.00° Concrete 863 ft / 263 m 0 ft / 0 m

Approach Navaids

Runway Type Ident Frequency Range Bearing (true) Bearing (mag) Slope Elevation
19 Localiser MR 110.30 MHz 18 nm / 33 km 181.74° 184.02° - 187 ft / 57 m (AMSL)
19 Glidescope MR 110.30 MHz 10 nm / 19 km 181.73° 184.01° 2.50° 187 ft / 57 m (AMSL)

Popular Alternatives